Time;durP1;ratioP1;P1;durP2;ratioP2;P2;SDS_P1;SDS_P2;PMS_P1;PMS_P2;Temp;Humidity;BMP_temperature;BMP_pressure;BME280_temperature;BME280_humidity;BME280_pressure;Samples;Min_cycle;Max_cycle;Signal;HPM_P1;HPM_P2
2022/05/18 00:01:43;;;;;;;4.10;3.70;;;18.40;99.90;;;;;;5095754;28;20627;-71
2022/05/18 00:04:10;;;;;;;5.83;3.30;;;18.30;99.90;;;;;;5096771;28;20608;-72
2022/05/18 00:06:36;;;;;;;3.47;3.23;;;18.30;99.90;;;;;;5096659;28;20656;-71
2022/05/18 00:09:03;;;;;;;9.33;3.33;;;18.30;99.90;;;;;;5096341;28;20653;-72
2022/05/18 00:11:31;;;;;;;5.33;3.40;;;18.20;99.90;;;;;;5096944;28;20613;-72
2022/05/18 00:13:57;;;;;;;3.70;3.33;;;18.30;99.90;;;;;;5095824;28;21054;-72
2022/05/18 00:16:28;;;;;;;5.90;3.20;;;18.30;99.90;;;;;;5095807;28;21116;-72
2022/05/18 00:18:55;;;;;;;7.73;3.50;;;18.30;99.90;;;;;;5096163;28;20608;-72
2022/05/18 00:21:22;;;;;;;6.33;3.37;;;18.20;99.90;;;;;;5077852;28;20675;-72
2022/05/18 00:23:48;;;;;;;5.47;3.70;;;18.20;99.90;;;;;;5078009;28;20983;-72
2022/05/18 00:26:15;;;;;;;3.20;2.90;;;18.10;99.90;;;;;;5096033;28;20605;-72
2022/05/18 00:28:41;;;;;;;5.80;3.67;;;18.10;99.90;;;;;;5095916;28;20616;-72
2022/05/18 00:31:08;;;;;;;4.73;4.03;;;18.10;99.90;;;;;;5096135;28;20601;-72
2022/05/18 00:33:34;;;;;;;4.50;3.83;;;18.00;99.90;;;;;;5077986;28;20601;-72
2022/05/18 00:36:00;;;;;;;9.63;3.70;;;18.00;99.90;;;;;;5095641;28;20609;-72
2022/05/18 00:38:27;;;;;;;3.80;3.50;;;17.90;99.90;;;;;;5095458;28;20624;-72
2022/05/18 00:40:54;;;;;;;4.60;3.93;;;17.90;99.90;;;;;;5077979;28;20650;-72
2022/05/18 00:43:29;;;;;;;5.97;4.10;;;17.80;99.90;;;;;;5096144;28;21179;-73
2022/05/18 00:46:03;;;;;;;6.67;3.80;;;17.70;99.90;;;;;;5096454;28;20962;-73
2022/05/18 00:48:30;;;;;;;4.27;3.97;;;17.60;99.90;;;;;;5096122;28;20578;-73
2022/05/18 00:51:01;;;;;;;4.57;4.13;;;17.60;99.90;;;;;;5077498;28;20653;-74
2022/05/18 00:53:50;;;;;;;4.60;4.20;;;17.60;99.90;;;;;;5095515;28;20574;-74
2022/05/18 00:56:27;;;;;;;3.47;3.13;;;17.60;99.90;;;;;;5078081;28;20633;-74
2022/05/18 00:59:05;;;;;;;6.77;4.10;;;17.50;99.90;;;;;;5095632;28;20926;-74
2022/05/18 01:01:32;;;;;;;4.20;3.90;;;17.60;99.90;;;;;;5095360;28;20590;-74
2022/05/18 01:04:02;;;;;;;5.10;4.10;;;17.60;99.90;;;;;;5095105;28;20634;-74
2022/05/18 01:06:40;;;;;;;7.03;3.20;;;17.70;99.90;;;;;;5094808;28;20649;-74
2022/05/18 01:09:09;;;;;;;7.77;3.60;;;17.80;99.90;;;;;;5094808;28;21032;-74
2022/05/18 01:11:39;;;;;;;4.90;4.30;;;17.80;99.90;;;;;;5094621;28;20662;-74
2022/05/18 01:14:16;;;;;;;6.33;3.90;;;17.80;99.90;;;;;;5094501;28;20610;-74
2022/05/18 01:16:43;;;;;;;6.00;4.10;;;17.80;99.90;;;;;;5094898;28;20553;-74
2022/05/18 01:19:19;;;;;;;5.13;3.80;;;17.80;99.90;;;;;;5076387;28;20625;-74
2022/05/18 01:22:03;;;;;;;4.43;3.67;;;17.70;99.90;;;;;;5094944;28;20651;-75
2022/05/18 01:24:54;;;;;;;4.90;4.50;;;17.60;99.90;;;;;;5095042;28;20581;-74
2022/05/18 01:27:21;;;;;;;5.30;4.00;;;17.60;99.90;;;;;;5094885;28;20966;-74
2022/05/18 01:29:47;;;;;;;4.13;3.83;;;17.70;99.90;;;;;;5094132;28;21252;-74
2022/05/18 01:32:16;;;;;;;4.60;3.77;;;17.60;99.90;;;;;;5095074;28;20632;-74
2022/05/18 01:34:42;;;;;;;8.90;5.30;;;17.50;99.90;;;;;;5094436;28;20609;-74
2022/05/18 01:37:11;;;;;;;4.60;4.20;;;17.50;99.90;;;;;;5094881;28;20609;-73
2022/05/18 01:39:50;;;;;;;9.03;4.20;;;17.50;99.90;;;;;;5076407;28;20624;-75
2022/05/18 01:42:33;;;;;;;3.90;3.60;;;17.40;99.90;;;;;;5094600;28;20592;-74
2022/05/18 01:45:00;;;;;;;5.33;4.83;;;17.30;99.90;;;;;;5094195;28;20585;-74
2022/05/18 01:47:32;;;;;;;3.70;3.40;;;17.30;99.90;;;;;;5076132;28;20609;-74
2022/05/18 01:50:00;;;;;;;4.47;4.07;;;17.20;99.90;;;;;;5093823;28;20796;-75
2022/05/18 01:52:26;;;;;;;5.33;3.77;;;17.10;99.90;;;;;;5059524;28;21183;-75
2022/05/18 01:54:53;;;;;;;4.37;3.97;;;17.10;99.90;;;;;;5076280;28;20620;-74
2022/05/18 01:57:19;;;;;;;4.87;4.43;;;17.00;99.90;;;;;;5093993;28;20610;-74
2022/05/18 01:59:46;;;;;;;5.90;4.77;;;17.00;99.90;;;;;;5075781;28;20614;-74
2022/05/18 02:02:12;;;;;;;7.00;3.70;;;16.90;99.90;;;;;;5075679;28;20965;-74
2022/05/18 02:04:41;;;;;;;4.90;4.50;;;16.90;99.90;;;;;;5093413;28;20640;-74
2022/05/18 02:07:08;;;;;;;5.40;4.10;;;16.90;99.90;;;;;;5094231;28;20652;-74
2022/05/18 02:09:35;;;;;;;4.30;3.63;;;16.90;99.90;;;;;;5093493;28;21017;-74
2022/05/18 02:12:02;;;;;;;6.90;4.20;;;16.90;99.90;;;;;;5094231;28;20609;-74
2022/05/18 02:14:28;;;;;;;4.60;4.30;;;16.90;99.90;;;;;;5094015;28;20698;-74
2022/05/18 02:16:55;;;;;;;4.40;4.00;;;17.00;99.90;;;;;;5093850;28;20613;-75
2022/05/18 02:19:22;;;;;;;5.00;4.60;;;17.00;99.90;;;;;;5094463;28;20643;-74
2022/05/18 02:21:49;;;;;;;6.27;4.50;;;17.00;99.90;;;;;;5075841;28;20617;-74
2022/05/18 02:24:16;;;;;;;6.07;3.90;;;17.00;99.90;;;;;;5094086;28;20624;-73
2022/05/18 02:26:43;;;;;;;4.10;3.80;;;17.00;99.90;;;;;;5093228;28;20584;-73
2022/05/18 02:29:09;;;;;;;5.37;4.80;;;17.00;99.90;;;;;;5093981;28;20617;-74
2022/05/18 02:31:36;;;;;;;5.40;3.63;;;17.00;99.90;;;;;;5094034;28;20601;-74
2022/05/18 02:34:03;;;;;;;4.10;3.70;;;16.90;99.90;;;;;;5093849;28;20617;-74
2022/05/18 02:36:30;;;;;;;6.03;4.50;;;16.90;99.90;;;;;;5092650;28;20583;-74
2022/05/18 02:38:56;;;;;;;5.63;4.20;;;16.90;99.90;;;;;;5092776;28;20613;-74
2022/05/18 02:41:23;;;;;;;4.40;4.10;;;16.80;99.90;;;;;;5093318;28;20614;-74
2022/05/18 02:43:51;;;;;;;5.10;4.30;;;16.80;99.90;;;;;;5093410;28;20621;-74
2022/05/18 02:46:20;;;;;;;5.10;4.60;;;16.60;99.90;;;;;;5076056;28;20648;-74
2022/05/18 02:48:47;;;;;;;12.07;4.93;;;16.40;99.90;;;;;;5093789;28;20620;-74
2022/05/18 02:51:15;;;;;;;5.13;4.43;;;16.40;99.90;;;;;;5059303;28;20652;-74
2022/05/18 02:53:42;;;;;;;5.13;4.63;;;16.40;99.90;;;;;;5093663;28;20636;-74
2022/05/18 02:56:16;;;;;;;5.30;4.80;;;16.40;99.90;;;;;;5093049;28;20943;-74
2022/05/18 02:58:48;;;;;;;6.57;4.67;;;16.30;99.90;;;;;;5093181;28;20976;-74
2022/05/18 03:01:21;;;;;;;6.00;5.30;;;16.30;99.90;;;;;;5093059;28;20941;-73
2022/05/18 03:03:48;;;;;;;4.83;4.30;;;16.20;99.90;;;;;;5093401;28;20574;-74
2022/05/18 03:06:16;;;;;;;5.33;4.83;;;16.20;99.90;;;;;;5092288;28;20668;-73
2022/05/18 03:08:46;;;;;;;5.30;4.80;;;16.10;99.90;;;;;;5093692;28;20585;-74
2022/05/18 03:11:14;;;;;;;5.90;5.10;;;16.00;99.90;;;;;;5074225;28;20669;-73
2022/05/18 03:13:41;;;;;;;6.03;5.20;;;16.00;99.90;;;;;;5092974;28;20613;-74
2022/05/18 03:16:08;;;;;;;6.17;4.43;;;16.00;99.90;;;;;;5093084;28;21175;-73
2022/05/18 03:18:35;;;;;;;5.60;5.20;;;15.90;99.90;;;;;;5093429;28;20665;-73
2022/05/18 03:23:47;;;;;;;7.07;5.13;;;15.90;99.90;;;;;;5092735;28;20577;-73
2022/05/18 03:26:17;;;;;;;8.53;5.47;;;16.00;99.90;;;;;;5092953;28;21164;-74
2022/05/18 03:28:47;;;;;;;4.97;4.50;;;15.90;99.90;;;;;;5093530;28;20616;-74
2022/05/18 03:31:16;;;;;;;5.50;5.00;;;16.00;99.90;;;;;;5093758;28;20649;-74
2022/05/18 03:33:44;;;;;;;5.97;4.77;;;15.90;99.90;;;;;;5074386;28;20684;-74
2022/05/18 03:36:12;;;;;;;5.77;5.27;;;16.00;99.90;;;;;;5074535;28;20618;-74
2022/05/18 03:38:40;;;;;;;5.83;5.23;;;16.00;99.90;;;;;;5092717;28;20609;-74
2022/05/18 03:41:06;;;;;;;5.53;4.47;;;16.00;99.90;;;;;;5092551;28;20628;-74
2022/05/18 03:43:32;;;;;;;5.63;5.17;;;16.10;99.90;;;;;;5074687;28;20613;-73
2022/05/18 03:45:59;;;;;;;9.03;6.33;;;16.10;99.90;;;;;;5077481;28;21239;-74
2022/05/18 03:48:26;;;;;;;5.13;4.70;;;16.00;99.90;;;;;;5057915;28;20617;-73
2022/05/18 03:50:55;;;;;;;5.47;5.00;;;15.90;99.90;;;;;;5096268;28;20656;-73
2022/05/18 03:53:21;;;;;;;7.00;5.20;;;15.90;99.90;;;;;;5095828;28;21191;-74
2022/05/18 03:55:48;;;;;;;7.83;4.80;;;15.90;99.90;;;;;;5095920;28;20628;-73
2022/05/18 03:58:15;;;;;;;6.40;4.97;;;15.80;99.90;;;;;;5095772;28;20617;-73
2022/05/18 04:00:43;;;;;;;6.23;5.43;;;15.80;99.90;;;;;;5096347;28;20621;-73
2022/05/18 04:03:11;;;;;;;6.00;5.57;;;15.80;99.90;;;;;;5096256;28;20613;-73
2022/05/18 04:05:38;;;;;;;10.70;5.30;;;15.80;99.90;;;;;;5096343;28;20693;-74
2022/05/18 04:08:09;;;;;;;12.60;5.40;;;15.90;99.90;;;;;;5095597;28;20690;-73
2022/05/18 04:10:38;;;;;;;7.90;5.30;;;15.90;99.90;;;;;;5078164;28;20656;-74
2022/05/18 04:16:48;;;;;;;5.37;4.70;;;15.80;99.90;;;;;;4975929;28;20589;-74
2022/05/18 04:19:16;;;;;;;9.43;5.53;;;15.80;99.90;;;;;;4994430;28;20647;-74
2022/05/18 04:21:42;;;;;;;9.00;5.30;;;15.80;99.90;;;;;;5094121;28;20969;-73
2022/05/18 04:24:09;;;;;;;7.37;4.90;;;15.90;99.90;;;;;;5096139;28;21167;-73
2022/05/18 04:26:35;;;;;;;6.00;5.07;;;15.90;99.90;;;;;;5078119;28;20616;-74
2022/05/18 04:29:01;;;;;;;5.83;5.20;;;15.90;99.90;;;;;;5096215;28;20621;-74
2022/05/18 04:31:28;;;;;;;8.03;5.17;;;16.00;99.90;;;;;;5077459;28;20657;-74
2022/05/18 04:33:54;;;;;;;8.60;5.43;;;16.10;99.90;;;;;;5095884;28;20924;-73
2022/05/18 04:36:21;;;;;;;4.70;4.30;;;16.10;99.90;;;;;;5095847;28;20966;-73
2022/05/18 04:38:47;;;;;;;5.70;5.17;;;16.30;99.90;;;;;;5077701;28;20617;-74
2022/05/18 04:41:14;;;;;;;6.53;5.97;;;16.30;99.90;;;;;;5095822;28;20617;-73
2022/05/18 04:43:40;;;;;;;6.73;5.97;;;16.40;99.90;;;;;;5095775;28;20584;-74
2022/05/18 04:46:07;;;;;;;5.40;4.90;;;16.40;99.90;;;;;;5077530;28;20613;-73
2022/05/18 04:48:34;;;;;;;5.00;4.67;;;16.50;99.90;;;;;;5095015;28;20658;-73
2022/05/18 04:51:05;;;;;;;5.70;5.20;;;16.60;99.90;;;;;;5094854;28;20657;-73
2022/05/18 04:53:33;;;;;;;5.40;4.70;;;16.70;99.90;;;;;;5094653;28;20629;-75
2022/05/18 04:56:00;;;;;;;7.37;5.20;;;16.70;99.90;;;;;;5094901;28;20587;-73
2022/05/18 04:58:26;;;;;;;9.80;5.50;;;16.80;99.90;;;;;;5095477;28;20609;-73
2022/05/18 05:00:58;;;;;;;8.83;5.80;;;16.90;99.90;;;;;;5094473;28;20687;-73
2022/05/18 05:03:25;;;;;;;5.27;4.80;;;16.90;99.90;;;;;;5094572;28;20617;-74
2022/05/18 05:05:52;;;;;;;7.23;5.20;;;16.90;99.90;;;;;;5077039;28;20949;-73
2022/05/18 05:08:19;;;;;;;5.93;5.43;;;17.10;99.90;;;;;;5094174;28;20660;-73
2022/05/18 05:10:45;;;;;;;5.37;4.97;;;17.20;99.90;;;;;;5076882;28;20641;-73
2022/05/18 05:13:12;;;;;;;8.20;5.60;;;17.20;99.90;;;;;;5095710;28;20609;-73
2022/05/18 05:15:38;;;;;;;4.40;4.10;;;17.30;99.90;;;;;;5094643;28;20621;-73
2022/05/18 05:18:05;;;;;;;10.50;5.57;;;17.40;99.90;;;;;;5094257;28;21175;-73
2022/05/18 05:20:31;;;;;;;5.03;4.53;;;17.50;99.90;;;;;;5094950;28;21273;-73
2022/05/18 05:22:58;;;;;;;8.40;5.13;;;17.60;99.90;;;;;;5095427;28;21113;-73
2022/05/18 05:25:24;;;;;;;6.47;5.00;;;17.70;99.90;;;;;;5095554;28;20617;-73
2022/05/18 05:27:50;;;;;;;5.53;4.47;;;17.70;99.90;;;;;;5077173;28;20667;-73
2022/05/18 05:30:17;;;;;;;5.30;4.80;;;17.70;99.90;;;;;;5094422;28;20658;-73
2022/05/18 05:32:44;;;;;;;6.63;4.50;;;17.80;99.90;;;;;;5094709;28;20605;-73
2022/05/18 05:35:12;;;;;;;5.83;4.87;;;18.00;99.90;;;;;;5094160;28;20690;-73
2022/05/18 05:37:39;;;;;;;5.70;5.17;;;18.00;99.90;;;;;;5094158;28;20617;-73
2022/05/18 05:40:07;;;;;;;5.80;4.93;;;18.10;99.90;;;;;;5095042;28;20627;-73
2022/05/18 05:42:35;;;;;;;5.80;5.03;;;18.20;99.90;;;;;;5093889;28;20613;-73
2022/05/18 05:45:01;;;;;;;5.90;5.30;;;18.20;99.90;;;;;;5094265;28;20617;-73
2022/05/18 05:47:28;;;;;;;9.20;4.90;;;18.10;99.90;;;;;;5094675;28;21084;-72
2022/05/18 05:49:54;;;;;;;5.57;4.93;;;18.20;99.90;;;;;;5094146;28;20250;-73
2022/05/18 05:52:21;;;;;;;4.70;4.30;;;18.40;99.90;;;;;;5093952;28;20610;-72
2022/05/18 05:54:47;;;;;;;6.47;5.23;;;18.40;99.90;;;;;;5060309;28;20617;-72
2022/05/18 05:57:14;;;;;;;8.40;4.87;;;18.50;99.90;;;;;;5093970;28;20624;-72
2022/05/18 05:59:40;;;;;;;5.80;5.20;;;18.50;99.90;;;;;;5094215;28;20616;-72
2022/05/18 06:02:09;;;;;;;6.30;4.87;;;18.60;99.90;;;;;;5093072;28;20621;-72
2022/05/18 06:04:37;;;;;;;9.60;4.60;;;18.60;99.90;;;;;;5093985;28;21189;-72
2022/05/18 06:07:04;;;;;;;11.50;5.10;;;18.80;99.90;;;;;;5093072;28;21300;-73
2022/05/18 06:09:30;;;;;;;6.60;5.03;;;18.90;99.90;;;;;;5094548;28;20614;-75
2022/05/18 06:11:56;;;;;;;5.53;4.77;;;18.90;99.90;;;;;;5076707;28;20659;-75
2022/05/18 06:14:23;;;;;;;6.67;5.13;;;19.00;99.90;;;;;;5094481;28;21167;-75
2022/05/18 06:16:49;;;;;;;11.10;5.53;;;18.90;99.90;;;;;;5094766;28;20606;-75
2022/05/18 06:19:17;;;;;;;4.77;4.37;;;18.90;99.90;;;;;;5094231;28;20605;-75
2022/05/18 06:21:44;;;;;;;5.83;5.30;;;19.10;99.90;;;;;;5093915;28;20625;-75
2022/05/18 06:24:10;;;;;;;7.27;4.73;;;19.00;99.90;;;;;;5093321;28;20614;-75
2022/05/18 06:26:37;;;;;;;8.83;4.93;;;19.20;99.90;;;;;;5074903;28;20620;-75
2022/05/18 06:29:04;;;;;;;14.60;5.40;;;19.40;99.90;;;;;;5092906;28;20629;-72
2022/05/18 06:31:31;;;;;;;8.27;6.10;;;19.50;99.90;;;;;;5092651;28;20661;-79
2022/05/18 06:33:58;;;;;;;7.32;4.75;;;19.60;99.90;;;;;;5093364;28;20729;-71
2022/05/18 06:36:25;;;;;;;5.73;5.20;;;19.50;99.90;;;;;;5093589;28;20255;-74
2022/05/18 06:38:51;;;;;;;6.37;4.90;;;19.60;99.90;;;;;;5093205;28;20601;-74
2022/05/18 06:41:24;;;;;;;5.03;4.60;;;19.60;99.90;;;;;;5093168;28;21009;-72
2022/05/18 06:43:56;;;;;;;5.80;5.20;;;19.70;99.90;;;;;;5093233;28;20585;-72
2022/05/18 06:46:25;;;;;;;6.50;4.87;;;19.70;99.90;;;;;;5092846;28;20640;-72
2022/05/18 06:48:52;;;;;;;6.17;5.77;;;19.80;99.90;;;;;;5092818;28;21164;-72
2022/05/18 06:51:25;;;;;;;8.03;5.03;;;20.00;99.90;;;;;;5092970;28;20686;-72
2022/05/18 06:53:55;;;;;;;5.00;4.50;;;20.00;99.90;;;;;;5093201;28;20609;-72
2022/05/18 06:56:25;;;;;;;6.83;5.37;;;20.10;99.90;;;;;;5092452;28;21171;-72
2022/05/18 06:58:52;;;;;;;6.33;4.73;;;20.20;99.90;;;;;;5092928;28;20613;-73
2022/05/18 07:01:19;;;;;;;6.40;5.80;;;20.40;99.90;;;;;;5093791;28;20613;-72
2022/05/18 07:06:48;;;;;;;6.73;5.13;;;20.60;99.90;;;;;;5055475;28;20260;-72
2022/05/18 07:09:20;;;;;;;5.60;5.10;;;20.60;99.90;;;;;;5097381;28;21207;-73
2022/05/18 07:11:50;;;;;;;6.83;5.03;;;20.90;99.90;;;;;;5096256;28;20629;-73
2022/05/18 07:14:23;;;;;;;8.17;5.57;;;20.90;99.90;;;;;;5093672;28;20577;-77
2022/05/18 07:16:50;;;;;;;5.00;4.50;;;20.80;99.90;;;;;;5093066;28;21198;-76
2022/05/18 07:19:18;;;;;;;6.23;5.10;;;21.00;99.90;;;;;;5093806;28;20675;-73
2022/05/18 07:21:47;;;;;;;6.37;5.00;;;21.10;99.90;;;;;;5097458;28;20631;-71
2022/05/18 07:24:14;;;;;;;6.00;5.37;;;21.20;99.90;;;;;;5095340;28;20626;-72
2022/05/18 07:26:44;;;;;;;4.80;4.20;;;21.30;99.90;;;;;;5097139;28;20621;-72
2022/05/18 07:29:13;;;;;;;5.07;4.60;;;21.50;99.90;;;;;;5098153;28;20592;-72
2022/05/18 07:34:48;;;;;;;5.43;4.80;;;21.80;99.90;;;;;;5096881;28;20566;-72
2022/05/18 07:37:18;;;;;;;7.17;5.00;;;21.80;99.90;;;;;;5096369;28;20720;-73
2022/05/18 07:39:45;;;;;;;5.63;3.90;;;22.10;99.90;;;;;;5096822;28;20605;-72
2022/05/18 07:42:27;;;;;;;7.43;4.77;;;22.40;99.90;;;;;;5093176;28;20604;-73
2022/05/18 07:44:53;;;;;;;7.57;4.90;;;22.50;99.90;;;;;;5100815;28;20613;-72
2022/05/18 07:47:32;;;;;;;4.53;4.20;;;22.50;99.90;;;;;;5078827;28;20607;-73
2022/05/18 07:50:14;;;;;;;4.67;4.10;;;22.40;99.90;;;;;;5081060;28;20619;-72
2022/05/18 07:52:40;;;;;;;5.53;5.03;;;22.50;99.90;;;;;;5097144;28;20629;-73
2022/05/18 07:55:07;;;;;;;4.87;4.47;;;22.70;99.90;;;;;;5098747;28;21179;-73
2022/05/18 07:57:33;;;;;;;4.97;4.40;;;23.00;99.90;;;;;;5099157;28;20593;-74
2022/05/18 08:00:00;;;;;;;10.47;4.40;;;23.00;99.90;;;;;;5098634;28;20617;-72
2022/05/18 08:02:29;;;;;;;4.60;4.20;;;23.10;99.90;;;;;;5097170;28;20659;-71
2022/05/18 08:04:55;;;;;;;4.00;3.70;;;23.10;99.90;;;;;;5095917;28;21197;-71
2022/05/18 08:07:22;;;;;;;5.73;4.00;;;23.40;99.90;;;;;;5096351;28;20679;-72
2022/05/18 08:15:29;;;;;;;12.30;4.03;;;23.50;99.90;;;;;;5098048;28;20609;-72
2022/05/18 08:17:55;;;;;;;5.03;4.33;;;23.30;99.90;;;;;;5078805;28;20620;-71
2022/05/18 08:20:23;;;;;;;5.00;4.00;;;23.50;99.90;;;;;;5095757;28;20614;-72
2022/05/18 08:22:49;;;;;;;6.70;4.00;;;23.20;99.90;;;;;;5080132;28;20623;-71
2022/05/18 08:25:16;;;;;;;5.90;4.23;;;23.30;99.90;;;;;;5096468;28;20609;-72
2022/05/18 08:27:46;;;;;;;5.80;5.17;;;23.60;99.90;;;;;;5078721;28;20609;-72
2022/05/18 08:30:17;;;;;;;6.97;3.80;;;24.00;99.90;;;;;;5094990;28;21005;-72
2022/05/18 08:32:44;;;;;;;8.40;3.70;;;24.10;99.90;;;;;;5097245;28;20633;-71
2022/05/18 08:35:13;;;;;;;6.97;4.10;;;24.20;99.90;;;;;;5096764;28;20608;-72
2022/05/18 08:37:46;;;;;;;7.37;4.20;;;24.10;99.90;;;;;;5095817;28;20651;-72
2022/05/18 08:40:28;;;;;;;6.20;3.50;;;24.20;99.90;;;;;;5078329;28;20653;-72
2022/05/18 08:43:01;;;;;;;7.47;3.93;;;24.30;99.90;;;;;;5096678;28;20620;-72
2022/05/18 08:45:38;;;;;;;4.30;3.90;;;24.60;99.90;;;;;;5095705;28;20944;-72
2022/05/18 08:48:06;;;;;;;6.53;3.53;;;24.70;99.90;;;;;;5096432;28;20617;-72
2022/05/18 08:50:34;;;;;;;3.90;3.50;;;24.60;99.90;;;;;;5096633;28;20968;-73
2022/05/18 08:53:18;;;;;;;11.00;4.20;;;24.40;99.90;;;;;;5096423;28;20606;-72
2022/05/18 08:59:39;;;;;;;4.50;3.97;;;24.30;99.90;;;;;;4980687;28;20635;-70
2022/05/18 09:02:15;;;;;;;3.70;3.40;;;24.90;99.90;;;;;;5077009;28;20916;-71
2022/05/18 09:05:05;;;;;;;3.63;3.33;;;25.20;99.90;;;;;;5095621;28;20724;-71
2022/05/18 09:07:41;;;;;;;5.20;2.93;;;25.20;99.90;;;;;;5094950;28;20656;-71
2022/05/18 09:10:18;;;;;;;5.97;3.43;;;25.40;99.90;;;;;;5095544;28;20565;-70
2022/05/18 09:12:50;;;;;;;8.00;3.40;;;25.70;99.90;;;;;;5094368;28;20665;-70
2022/05/18 09:15:34;;;;;;;7.73;3.50;;;25.80;99.90;;;;;;5094848;28;20625;-71
2022/05/18 09:18:27;;;;;;;12.20;4.00;;;26.00;99.90;;;;;;5094903;28;20629;-71
2022/05/18 09:21:23;;;;;;;4.23;3.43;;;26.00;99.90;;;;;;5082090;28;20994;-70
2022/05/18 09:24:15;;;;;;;9.00;3.83;;;25.80;99.90;;;;;;5047850;28;20616;-70
2022/05/18 09:27:11;;;;;;;5.27;3.63;;;25.60;99.90;;;;;;5095164;28;21079;-70
2022/05/18 09:29:52;;;;;;;7.77;3.40;;;25.90;99.90;;;;;;5094414;28;20629;-70
2022/05/18 09:33:06;;;;;;;4.90;3.60;;;25.90;99.90;;;;;;5094569;28;21207;-70
2022/05/18 09:35:53;;;;;;;5.93;3.57;;;26.20;99.90;;;;;;5094223;28;21160;-70
2022/05/18 09:38:25;;;;;;;3.20;3.00;;;26.30;99.90;;;;;;5094625;28;21236;-70
2022/05/18 09:40:52;;;;;;;4.77;3.50;;;26.40;99.90;;;;;;5095183;28;20570;-70
2022/05/18 09:43:33;;;;;;;4.50;3.80;;;26.40;99.90;;;;;;5060405;28;20613;-70
2022/05/18 09:46:00;;;;;;;4.43;4.10;;;26.50;99.90;;;;;;5094070;28;20578;-70
2022/05/18 09:48:39;;;;;;;9.90;3.50;;;26.60;99.90;;;;;;5094646;28;20617;-72
2022/05/18 09:51:08;;;;;;;3.50;3.20;;;26.60;99.90;;;;;;5094510;28;21281;-73
2022/05/18 09:53:40;;;;;;;5.00;3.63;;;26.70;99.90;;;;;;5093939;28;20605;-73
2022/05/18 09:56:15;;;;;;;8.17;4.23;;;26.70;99.90;;;;;;5094192;28;20584;-72
2022/05/18 09:58:45;;;;;;;7.70;3.73;;;27.10;99.90;;;;;;5093931;28;20581;-73
2022/05/18 10:10:26;;;;;;;9.00;3.37;;;27.50;99.90;;;;;;5094040;28;20707;-72
2022/05/18 10:12:56;;;;;;;4.97;3.70;;;27.50;99.90;;;;;;5094495;28;20635;-73
2022/05/18 10:15:25;;;;;;;3.47;3.20;;;27.30;99.90;;;;;;5075357;28;21214;-72
2022/05/18 10:18:18;;;;;;;7.20;3.67;;;27.60;99.90;;;;;;5094065;28;20610;-72
2022/05/18 10:21:09;;;;;;;3.67;3.47;;;28.00;99.90;;;;;;5094341;28;20612;-72
2022/05/18 10:23:51;;;;;;;4.03;3.60;;;28.00;99.90;;;;;;5093439;28;20942;-72
2022/05/18 10:26:25;;;;;;;4.93;3.57;;;28.00;99.90;;;;;;5093714;28;20619;-72
2022/05/18 10:29:14;;;;;;;5.30;4.13;;;28.00;99.90;;;;;;5093374;28;20591;-72
2022/05/18 10:32:22;;;;;;;4.80;4.27;;;28.30;99.90;;;;;;5092345;28;20657;-73
2022/05/18 10:34:51;;;;;;;5.80;4.03;;;27.40;99.90;;;;;;5092606;28;20609;-73
2022/05/18 10:37:28;;;;;;;7.60;5.17;;;27.50;99.90;;;;;;5093572;28;20581;-72
2022/05/18 10:40:12;;;;;;;18.83;12.60;;;26.90;99.90;;;;;;5092916;28;20620;-73
2022/05/18 10:42:50;;;;;;;5.70;3.50;;;27.60;99.90;;;;;;5075177;28;20613;-72
2022/05/18 10:45:32;;;;;;;4.33;3.67;;;28.30;99.90;;;;;;5092764;28;21101;-73
2022/05/18 10:48:13;;;;;;;5.40;3.23;;;28.50;99.90;;;;;;5093075;28;20632;-73
2022/05/18 10:50:41;;;;;;;3.30;3.10;;;28.60;99.90;;;;;;5093344;28;20618;-73
2022/05/18 10:53:15;;;;;;;4.53;3.27;;;28.90;99.90;;;;;;5093189;28;20645;-72
2022/05/18 10:55:56;;;;;;;3.53;3.33;;;28.70;99.90;;;;;;5093175;28;20613;-73
2022/05/18 10:58:32;;;;;;;4.40;3.80;;;29.00;99.90;;;;;;5094597;28;20638;-73
2022/05/18 11:01:07;;;;;;;5.17;3.47;;;29.20;99.90;;;;;;5097723;28;20598;-73
2022/05/18 11:03:57;;;;;;;3.70;3.50;;;29.00;99.90;;;;;;5079649;28;21171;-73
2022/05/18 11:06:37;;;;;;;3.70;3.30;;;28.40;99.90;;;;;;5097283;28;20650;-72
2022/05/18 11:09:18;;;;;;;6.20;3.47;;;28.30;99.90;;;;;;5097132;28;20577;-72
2022/05/18 11:12:11;;;;;;;4.20;3.70;;;28.50;99.90;;;;;;5097784;28;21191;-72
2022/05/18 11:14:59;;;;;;;3.23;2.53;;;28.30;99.90;;;;;;5097527;28;20570;-72
2022/05/18 11:17:47;;;;;;;5.30;3.27;;;28.80;99.90;;;;;;5098048;28;20660;-72
2022/05/18 11:20:44;;;;;;;4.87;3.30;;;28.80;99.90;;;;;;5097753;28;20594;-72
2022/05/18 11:23:31;;;;;;;10.10;3.70;;;29.50;99.90;;;;;;5097773;28;20575;-72
2022/05/18 11:26:12;;;;;;;3.47;3.17;;;30.40;99.90;;;;;;5078738;28;20616;-72
2022/05/18 11:29:04;;;;;;;5.57;3.60;;;30.00;99.90;;;;;;5096387;28;20613;-72
2022/05/18 11:31:39;;;;;;;3.27;3.00;;;30.00;99.90;;;;;;5097383;28;20628;-72
2022/05/18 11:34:42;;;;;;;6.20;3.97;;;30.80;99.90;;;;;;5097058;28;21021;-72
2022/05/18 11:37:46;;;;;;;3.50;3.20;;;31.00;99.90;;;;;;5097384;28;20596;-72
2022/05/18 11:40:31;;;;;;;3.83;3.47;;;32.50;99.90;;;;;;5097089;28;20647;-72
2022/05/18 11:43:35;;;;;;;3.57;3.30;;;31.90;99.90;;;;;;5096812;28;21206;-72
2022/05/18 11:46:17;;;;;;;6.80;3.63;;;31.00;99.90;;;;;;5097003;28;20671;-72
2022/05/18 11:48:51;;;;;;;3.87;3.43;;;30.70;99.90;;;;;;5097409;28;21053;-72
2022/05/18 11:51:36;;;;;;;3.13;2.93;;;31.60;99.90;;;;;;5097225;28;20617;-72
2022/05/18 11:54:25;;;;;;;5.77;3.30;;;31.50;99.90;;;;;;5079121;28;20628;-73
2022/05/18 11:57:18;;;;;;;6.23;3.70;;;31.60;99.90;;;;;;5046077;28;20974;-72
2022/05/18 12:00:10;;;;;;;3.83;3.53;;;32.50;99.90;;;;;;5095434;28;20627;-72
2022/05/18 12:02:45;;;;;;;3.30;3.10;;;32.60;99.90;;;;;;5096278;28;20585;-72
2022/05/18 12:05:49;;;;;;;4.43;3.60;;;32.50;99.90;;;;;;5096195;28;20635;-72
2022/05/18 12:08:30;;;;;;;3.03;2.83;;;33.00;99.90;;;;;;5095846;28;20651;-72
2022/05/18 12:11:04;;;;;;;3.50;3.07;;;32.30;99.90;;;;;;5095906;28;20569;-72
2022/05/18 12:13:57;;;;;;;3.73;3.33;;;32.40;99.90;;;;;;5077924;28;21014;-72
2022/05/18 12:16:46;;;;;;;9.30;3.40;;;31.50;99.90;;;;;;5095527;28;20624;-72
2022/05/18 12:19:31;;;;;;;3.23;2.80;;;31.60;99.90;;;;;;5096079;28;20581;-72
2022/05/18 12:22:12;;;;;;;4.00;3.13;;;32.50;99.90;;;;;;5095709;28;21148;-72
2022/05/18 12:24:41;;;;;;;3.30;2.83;;;32.30;99.90;;;;;;5096041;28;20917;-72
2022/05/18 12:27:10;;;;;;;3.17;2.97;;;32.60;99.90;;;;;;5095906;28;20662;-73
2022/05/18 12:29:37;;;;;;;6.83;3.37;;;32.90;99.90;;;;;;5095481;28;20612;-73
2022/05/18 12:32:05;;;;;;;3.30;3.00;;;32.80;99.90;;;;;;5095376;28;21065;-72
2022/05/18 12:34:35;;;;;;;4.00;3.70;;;32.70;99.90;;;;;;5095651;28;20605;-72
2022/05/18 12:37:15;;;;;;;3.53;2.90;;;33.40;99.90;;;;;;5095566;28;20586;-72
2022/05/18 12:39:48;;;;;;;3.20;3.00;;;34.20;99.90;;;;;;5095713;28;20937;-72
2022/05/18 12:42:28;;;;;;;4.70;2.77;;;34.00;99.90;;;;;;5095615;28;20573;-72
2022/05/18 12:45:01;;;;;;;3.40;3.10;;;33.60;99.90;;;;;;5095296;28;20942;-73
2022/05/18 12:47:55;;;;;;;4.20;3.30;;;32.10;99.90;;;;;;5076998;28;20986;-73
2022/05/18 12:50:35;;;;;;;3.43;3.10;;;33.00;99.90;;;;;;5095480;28;20577;-73
2022/05/18 12:53:10;;;;;;;3.60;3.40;;;33.00;99.90;;;;;;5095922;28;21202;-72
2022/05/18 12:55:42;;;;;;;6.13;4.17;;;33.30;99.90;;;;;;5095763;28;20582;-72
2022/05/18 12:58:09;;;;;;;5.80;3.00;;;33.40;99.90;;;;;;5095749;28;20581;-73
2022/05/18 13:00:55;;;;;;;4.77;3.63;;;33.60;99.90;;;;;;5095724;28;20605;-73
2022/05/18 13:04:05;;;;;;;3.23;2.93;;;33.20;99.90;;;;;;5096663;28;20581;-72
2022/05/18 13:06:55;;;;;;;4.87;3.33;;;33.20;99.90;;;;;;4993619;28;20657;-72
2022/05/18 13:09:21;;;;;;;3.37;2.83;;;34.20;99.90;;;;;;4993272;28;20621;-72
2022/05/18 13:12:03;;;;;;;3.10;2.90;;;32.70;99.90;;;;;;5058301;28;20657;-73
2022/05/18 13:14:34;;;;;;;3.40;3.20;;;33.80;99.90;;;;;;5095010;28;20586;-72
2022/05/18 13:17:08;;;;;;;4.97;3.67;;;34.50;99.90;;;;;;5076798;28;20663;-72
2022/05/18 13:19:35;;;;;;;3.50;3.30;;;34.20;99.90;;;;;;5094328;28;20609;-73
2022/05/18 13:22:17;;;;;;;5.13;3.70;;;34.30;99.90;;;;;;5094320;28;20633;-72
2022/05/18 13:24:52;;;;;;;3.53;3.10;;;33.90;99.90;;;;;;5095310;28;20613;-72
2022/05/18 13:27:40;;;;;;;4.57;3.77;;;32.80;99.90;;;;;;5077049;28;21167;-73
2022/05/18 13:30:13;;;;;;;3.40;3.10;;;32.50;99.90;;;;;;5094734;28;20601;-72
2022/05/18 13:32:41;;;;;;;3.73;3.43;;;34.00;99.90;;;;;;5094806;28;20629;-72
2022/05/18 13:35:15;;;;;;;4.47;3.50;;;35.00;99.90;;;;;;5094632;28;20687;-72
2022/05/18 13:37:41;;;;;;;3.33;3.03;;;34.20;99.90;;;;;;5094496;28;20625;-73
2022/05/18 13:40:09;;;;;;;5.23;2.97;;;35.10;99.90;;;;;;5094545;28;20605;-72
2022/05/18 13:42:36;;;;;;;3.67;3.33;;;34.70;99.90;;;;;;5094577;28;20605;-72
2022/05/18 13:45:13;;;;;;;2.90;2.70;;;34.60;99.90;;;;;;5094276;28;20613;-72